createdAt,value
2022-11-15T00:00:38.591Z,100913.81
2022-11-15T00:01:29.289Z,100907.44
2022-11-15T00:02:22.999Z,100903.50
2022-11-15T00:03:15.862Z,100907.19
2022-11-15T00:04:09.338Z,100901.25
2022-11-15T00:05:00.092Z,100895.31
2022-11-15T00:05:54.011Z,100900.44
2022-11-15T00:06:47.534Z,100896.94
2022-11-15T00:07:55.141Z,100891.59
2022-11-15T00:08:49.359Z,100897.16
2022-11-15T00:09:45.941Z,100889.38
2022-11-15T00:10:37.383Z,100886.69
2022-11-15T00:11:33.890Z,100895.91
2022-11-15T00:12:24.813Z,100889.94
2022-11-15T00:13:18.644Z,100891.81
2022-11-15T00:14:12.999Z,100890.97
2022-11-15T00:15:07.340Z,100883.19
2022-11-15T00:15:59.324Z,100887.72
2022-11-15T00:16:52.889Z,100878.69
2022-11-15T00:17:44.020Z,100880.28
2022-11-15T00:18:37.539Z,100881.94
2022-11-15T00:19:28.229Z,100879.88
2022-11-15T00:20:21.780Z,100883.13
2022-11-15T00:21:14.771Z,100876.75
2022-11-15T00:22:08.251Z,100885.97
2022-11-15T00:22:59.404Z,100875.50
2022-11-15T00:23:53.172Z,100880.63
2022-11-15T00:24:46.225Z,100875.50
2022-11-15T00:25:39.595Z,100863.41
2022-11-15T00:26:30.592Z,100866.28
2022-11-15T00:27:23.877Z,100866.28
2022-11-15T00:28:14.615Z,100862.56
2022-11-15T00:29:08.332Z,100868.75
2022-11-15T00:30:01.660Z,100859.06
2022-11-15T00:30:55.251Z,100862.00
2022-11-15T00:31:47.259Z,100862.63
2022-11-15T00:32:40.291Z,100853.78
2022-11-15T00:33:32.257Z,100850.94
2022-11-15T00:34:26.077Z,100850.13
2022-11-15T00:35:16.823Z,100844.56
2022-11-15T00:36:12.911Z,100843.50
2022-11-15T00:37:03.567Z,100852.16
2022-11-15T00:37:54.257Z,100840.63
2022-11-15T00:38:47.593Z,100845.16
2022-11-15T00:39:38.145Z,100847.00
2022-11-15T00:40:31.259Z,100851.13
2022-11-15T00:41:22.178Z,100836.72
2022-11-15T00:42:15.126Z,100832.41
2022-11-15T00:43:05.903Z,100837.31
2022-11-15T00:43:59.122Z,100834.84
2022-11-15T00:44:50.121Z,100832.34
2022-11-15T00:45:45.641Z,100840.59
2022-11-15T00:46:36.551Z,100837.47
2022-11-15T00:47:30.134Z,100835.19
2022-11-15T00:48:21.200Z,100837.84
2022-11-15T00:49:14.781Z,100842.16
2022-11-15T00:50:06.488Z,100843.81
2022-11-15T00:51:00.137Z,100844.63
2022-11-15T00:51:51.274Z,100840.69
2022-11-15T00:52:44.990Z,100838.63
2022-11-15T00:53:36.401Z,100841.31
2022-11-15T00:54:30.337Z,100841.53
2022-11-15T00:55:21.769Z,100838.63
2022-11-15T00:56:15.501Z,100836.75
2022-11-15T00:57:06.469Z,100837.56
2022-11-15T00:58:00.168Z,100841.91
2022-11-15T00:58:51.697Z,100843.53
2022-11-15T00:59:45.529Z,100836.09
2022-11-15T01:00:37.128Z,100837.75
2022-11-15T01:01:33.721Z,100840.22
2022-11-15T01:02:25.147Z,100836.72
2022-11-15T01:03:18.934Z,100834.66
2022-11-15T01:04:09.946Z,100837.31
2022-11-15T01:05:03.717Z,100837.31
2022-11-15T01:05:54.761Z,100838.34
2022-11-15T01:06:48.356Z,100833.81
2022-11-15T01:07:39.578Z,100832.75
2022-11-15T01:08:33.158Z,100836.50
2022-11-15T01:09:24.264Z,100835.31
2022-11-15T01:10:18.009Z,100823.63
2022-11-15T01:11:11.289Z,100820.56
2022-11-15T01:12:04.945Z,100821.59
2022-11-15T01:12:56.147Z,100826.78
2022-11-15T01:13:49.798Z,100818.38
2022-11-15T01:14:40.955Z,100824.38
2022-11-15T01:15:34.700Z,100824.59
2022-11-15T01:16:25.757Z,100821.09
2022-11-15T01:17:22.103Z,100813.91
2022-11-15T01:18:13.388Z,100817.84
2022-11-15T01:19:07.778Z,100818.25
2022-11-15T01:19:59.000Z,100821.16
2022-11-15T01:20:52.907Z,100823.44
2022-11-15T01:21:44.233Z,100821.00
2022-11-15T01:22:38.172Z,100819.78
2022-11-15T01:23:29.346Z,100822.66
2022-11-15T01:24:23.656Z,100818.59
2022-11-15T01:25:14.713Z,100803.38
2022-11-15T01:26:10.299Z,100812.81
2022-11-15T01:27:01.361Z,100809.09
2022-11-15T01:27:55.037Z,100809.31
2022-11-15T01:28:46.217Z,100816.31
2022-11-15T01:29:40.151Z,100811.97
2022-11-15T01:30:31.571Z,100813.84
2022-11-15T01:31:25.798Z,100817.78
2022-11-15T01:32:19.430Z,100815.75
2022-11-15T01:33:13.117Z,100813.47
2022-11-15T01:34:04.190Z,100808.13
2022-11-15T01:34:58.140Z,100810.81
2022-11-15T01:35:51.457Z,100804.06
2022-11-15T01:36:45.297Z,100811.47
2022-11-15T01:37:36.781Z,100802.84
2022-11-15T01:38:30.653Z,100799.81
2022-11-15T01:39:21.689Z,100793.03
2022-11-15T01:40:15.624Z,100795.94
2022-11-15T01:41:06.744Z,100791.81
2022-11-15T01:42:00.310Z,100800.06
2022-11-15T01:42:51.916Z,100794.72
2022-11-15T01:43:45.607Z,100791.44
2022-11-15T01:44:47.081Z,100795.56
2022-11-15T01:45:40.922Z,100796.03
2022-11-15T01:46:36.813Z,100799.09
2022-11-15T01:47:36.807Z,100790.91
2022-11-15T01:48:33.223Z,100784.97
2022-11-15T01:49:29.884Z,100790.31
2022-11-15T01:50:28.175Z,100792.16
2022-11-15T01:51:25.857Z,100794.63
2022-11-15T01:52:20.601Z,100791.97
2022-11-15T01:53:14.602Z,100788.88
2022-11-15T01:54:11.095Z,100782.50
2022-11-15T01:55:09.232Z,100771.38
2022-11-15T01:56:03.699Z,100783.50
2022-11-15T01:57:01.674Z,100784.34
2022-11-15T01:57:59.594Z,100777.97
2022-11-15T01:58:54.018Z,100791.09
2022-11-15T01:59:46.992Z,100787.59
2022-11-15T02:00:40.971Z,100780.41
2022-11-15T02:01:34.236Z,100782.03
2022-11-15T02:02:28.084Z,100774.66
2022-11-15T02:03:27.898Z,100768.50
2022-11-15T02:04:31.353Z,100780.38
2022-11-15T02:05:25.180Z,100775.88
2022-11-15T02:06:18.866Z,100770.75
2022-11-15T02:07:12.544Z,100768.31
2022-11-15T02:08:06.392Z,100765.03
2022-11-15T02:08:58.637Z,100765.25
2022-11-15T02:09:53.923Z,100773.69
2022-11-15T02:10:45.418Z,100766.09
2022-11-15T02:11:39.576Z,100761.78
2022-11-15T02:12:32.537Z,100769.81
2022-11-15T02:13:26.703Z,100765.06
2022-11-15T02:14:23.992Z,100764.06
2022-11-15T02:15:18.172Z,100757.44
2022-11-15T02:16:22.432Z,100752.31
2022-11-15T02:17:33.797Z,100756.03
2022-11-15T02:18:33.989Z,100758.09
2022-11-15T02:19:54.798Z,100768.34
2022-11-15T02:21:03.938Z,100753.19
2022-11-15T02:22:11.665Z,100753.78
2022-11-15T02:23:33.418Z,100753.13
2022-11-15T02:25:00.860Z,100756.25
2022-11-15T02:26:08.700Z,100754.81
2022-11-15T02:27:25.757Z,100758.13
2022-11-15T02:28:45.632Z,100757.53
2022-11-15T02:29:58.066Z,100758.13
2022-11-15T02:30:56.838Z,100751.78
2022-11-15T02:31:59.919Z,100752.38
2022-11-15T02:32:56.264Z,100748.28
2022-11-15T02:33:57.933Z,100751.78
2022-11-15T02:34:55.332Z,100734.94
2022-11-15T02:35:56.699Z,100752.59
2022-11-15T02:36:56.614Z,100751.78
2022-11-15T02:37:57.492Z,100754.84
2022-11-15T02:38:56.072Z,100746.84
2022-11-15T02:39:55.650Z,100746.63
2022-11-15T02:40:54.769Z,100747.47
2022-11-15T02:41:54.364Z,100743.75
2022-11-15T02:43:08.540Z,100743.53
2022-11-15T02:44:05.007Z,100745.38
2022-11-15T02:44:59.690Z,100743.53
2022-11-15T02:46:02.584Z,100747.25
2022-11-15T02:47:12.159Z,100731.66
2022-11-15T02:48:05.335Z,100735.34
2022-11-15T02:48:59.174Z,100733.50
2022-11-15T02:49:53.954Z,100742.31
2022-11-15T02:50:49.150Z,100725.28
2022-11-15T02:51:42.188Z,100737.00
2022-11-15T02:52:36.161Z,100730.41
2022-11-15T02:53:28.701Z,100719.50
2022-11-15T02:54:28.328Z,100728.34
2022-11-15T02:55:31.548Z,100733.09
2022-11-15T02:56:25.428Z,100736.34
2022-11-15T02:57:23.891Z,100726.94
2022-11-15T02:58:38.748Z,100730.63
2022-11-15T03:00:01.893Z,100730.25
2022-11-15T03:01:01.946Z,100725.31
2022-11-15T03:02:12.922Z,100711.38
2022-11-15T03:03:23.429Z,100723.91
2022-11-15T03:04:27.953Z,100727.38
2022-11-15T03:05:26.787Z,100730.88
2022-11-15T03:06:33.385Z,100708.69
2022-11-15T03:07:31.175Z,100719.97
2022-11-15T03:08:33.356Z,100718.75
2022-11-15T03:09:34.168Z,100713.19
2022-11-15T03:10:33.785Z,100720.97
2022-11-15T03:11:25.796Z,100717.72
2022-11-15T03:12:28.158Z,100709.72
2022-11-15T03:13:28.131Z,100709.91
2022-11-15T03:14:28.234Z,100716.50
2022-11-15T03:15:24.819Z,100709.72
2022-11-15T03:16:28.280Z,100710.34
2022-11-15T03:17:25.514Z,100704.19
2022-11-15T03:18:25.440Z,100703.38
2022-11-15T03:19:23.183Z,100690.03
2022-11-15T03:20:21.675Z,100699.06
2022-11-15T03:21:16.921Z,100700.69
2022-11-15T03:22:15.153Z,100696.81
2022-11-15T03:23:09.333Z,100698.88
2022-11-15T03:24:10.228Z,100692.94
2022-11-15T03:25:06.092Z,100698.69
2022-11-15T03:26:02.297Z,100688.47
2022-11-15T03:26:55.211Z,100699.34
2022-11-15T03:27:55.267Z,100694.63
2022-11-15T03:28:51.917Z,100700.34
2022-11-15T03:29:50.191Z,100704.22
2022-11-15T03:30:42.822Z,100697.91
2022-11-15T03:31:51.740Z,100690.53
2022-11-15T03:32:47.142Z,100696.09
2022-11-15T03:33:40.702Z,100685.84
2022-11-15T03:34:35.203Z,100685.03
2022-11-15T03:35:31.408Z,100689.09
2022-11-15T03:36:23.750Z,100688.28
2022-11-15T03:37:21.144Z,100682.75
2022-11-15T03:38:18.531Z,100680.88
2022-11-15T03:39:17.643Z,100681.72
2022-11-15T03:40:12.413Z,100684.38
2022-11-15T03:41:12.122Z,100675.97
2022-11-15T03:42:18.920Z,100684.59
2022-11-15T03:43:19.362Z,100676.59
2022-11-15T03:44:18.179Z,100675.81
2022-11-15T03:45:19.031Z,100679.06
2022-11-15T03:46:16.427Z,100679.28
2022-11-15T03:47:18.344Z,100669.41
2022-11-15T03:48:14.818Z,100675.38
2022-11-15T03:49:12.589Z,100676.19
2022-11-15T03:50:09.676Z,100663.69
2022-11-15T03:51:05.912Z,100670.84
2022-11-15T03:51:58.955Z,100670.84
2022-11-15T03:52:53.823Z,100663.88
2022-11-15T03:53:44.850Z,100664.09
2022-11-15T03:54:39.009Z,100665.53
2022-11-15T03:55:33.130Z,100660.38
2022-11-15T03:56:26.887Z,100662.03
2022-11-15T03:57:18.389Z,100667.38
2022-11-15T03:58:12.192Z,100655.06
2022-11-15T03:59:03.073Z,100663.69
2022-11-15T03:59:56.792Z,100658.53
2022-11-15T04:00:48.014Z,100659.16
2022-11-15T04:01:41.867Z,100659.94
2022-11-15T04:02:35.825Z,100665.09
2022-11-15T04:03:30.387Z,100667.81
2022-11-15T04:04:21.476Z,100657.91
2022-11-15T04:05:15.300Z,100659.56
2022-11-15T04:06:07.289Z,100654.22
2022-11-15T04:07:01.146Z,100655.88
2022-11-15T04:07:52.421Z,100651.38
2022-11-15T07:17:30.246Z,100552.53
2022-11-15T07:18:21.788Z,100553.13
2022-11-15T07:19:15.022Z,100556.41
2022-11-15T07:20:06.882Z,100549.00
2022-11-15T07:21:05.161Z,100550.44
2022-11-15T07:21:55.867Z,100539.34
2022-11-15T07:22:51.200Z,100542.63
2022-11-15T07:23:41.964Z,100541.59
2022-11-15T07:24:34.983Z,100551.22
2022-11-15T07:25:25.777Z,100542.22
2022-11-15T07:26:19.609Z,100538.91
2022-11-15T07:27:10.936Z,100537.44
2022-11-15T07:28:01.420Z,100540.94
2022-11-15T07:28:55.724Z,100528.81
2022-11-15T07:29:46.406Z,100530.03
2022-11-15T07:30:44.955Z,100542.09
2022-11-15T07:31:36.627Z,100537.16
2022-11-15T07:32:32.304Z,100540.63
2022-11-15T07:33:23.349Z,100525.25
2022-11-15T07:34:17.014Z,100525.03
2022-11-15T07:35:08.169Z,100536.28
2022-11-15T07:36:03.235Z,100523.59
2022-11-15T07:36:56.927Z,100527.66
2022-11-15T07:37:57.543Z,100518.19
2022-11-15T07:38:48.167Z,100525.78
2022-11-15T07:39:42.282Z,100519.81
2022-11-15T07:40:33.653Z,100511.63
2022-11-15T07:41:27.258Z,100516.97
2022-11-15T07:42:33.517Z,100501.78
2022-11-15T07:43:26.509Z,100503.63
2022-11-15T07:44:16.940Z,100507.09
2022-11-15T07:45:11.497Z,100505.25
2022-11-15T07:46:06.515Z,100514.47
2022-11-15T07:46:59.892Z,100509.13
2022-11-15T07:47:53.784Z,100509.72
2022-11-15T07:48:48.232Z,100506.22
2022-11-15T07:49:38.948Z,100510.31
2022-11-15T07:50:32.844Z,100507.41
2022-11-15T07:51:23.782Z,100513.56
2022-11-15T07:52:17.369Z,100509.50
2022-11-15T07:53:09.718Z,100509.50
2022-11-15T07:54:04.689Z,100519.94
2022-11-15T07:54:57.757Z,100507.88
2022-11-15T07:55:51.701Z,100504.16
2022-11-15T07:56:45.566Z,100515.66
2022-11-15T07:57:39.253Z,100498.84
2022-11-15T07:58:29.940Z,100511.34
2022-11-15T07:59:23.134Z,100501.50
2022-11-15T08:00:16.389Z,100497.56
2022-11-15T08:01:12.541Z,100513.56
2022-11-15T08:02:03.872Z,100487.16
2022-11-15T08:03:05.477Z,100477.50
2022-11-15T08:03:56.155Z,100486.16
2022-11-15T08:04:49.773Z,100488.81
2022-11-15T08:05:41.998Z,100495.78
2022-11-15T08:06:36.447Z,100495.56
2022-11-15T08:07:30.440Z,100491.88
2022-11-15T08:08:24.220Z,100481.19
2022-11-15T08:09:14.956Z,100496.38
2022-11-15T08:10:10.061Z,100498.22
2022-11-15T08:11:00.918Z,100489.41
2022-11-15T08:11:54.105Z,100486.16
2022-11-15T08:12:45.147Z,100494.97
2022-11-15T08:13:38.648Z,100496.81
2022-11-15T08:14:29.474Z,100474.22
2022-11-15T08:15:26.103Z,100477.91
2022-11-15T08:16:19.126Z,100485.53
2022-11-15T08:17:10.556Z,100484.50
2022-11-15T08:18:09.723Z,100492.06
2022-11-15T08:19:01.267Z,100502.16
2022-11-15T08:19:54.829Z,100477.53
2022-11-15T08:20:46.247Z,100485.78
2022-11-15T08:21:39.718Z,100491.50
2022-11-15T08:22:30.605Z,100502.63
2022-11-15T08:23:24.455Z,100484.59
2022-11-15T08:24:15.404Z,100480.91
2022-11-15T08:25:09.073Z,100481.94
2022-11-15T08:26:07.190Z,100484.81
2022-11-15T08:27:00.340Z,100492.22
2022-11-15T08:27:53.106Z,100492.00
2022-11-15T08:28:46.810Z,100507.19
2022-11-15T08:29:37.653Z,100484.22
2022-11-15T08:30:31.562Z,100475.41
2022-11-15T08:31:22.609Z,100487.31
2022-11-15T08:32:16.039Z,100481.78
2022-11-15T08:33:15.307Z,100500.44
2022-11-15T08:34:07.323Z,100488.75
2022-11-15T08:35:00.480Z,100491.41
2022-11-15T08:35:51.153Z,100500.22
2022-11-15T08:36:47.706Z,100491.63
2022-11-15T08:37:38.847Z,100476.88
2022-11-15T08:38:32.829Z,100479.16
2022-11-15T08:39:23.933Z,100469.91
2022-11-15T08:40:18.595Z,100467.84
2022-11-15T08:41:14.655Z,100469.47
2022-11-15T08:42:08.043Z,100468.63
2022-11-15T08:42:59.923Z,100467.84
2022-11-15T08:43:53.050Z,100473.84
2022-11-15T08:44:44.165Z,100462.13
2022-11-15T08:45:38.025Z,100474.84
2022-11-15T08:46:28.881Z,100488.78
2022-11-15T08:47:22.657Z,100476.06
2022-11-15T08:48:16.032Z,100467.84
2022-11-15T08:49:09.549Z,100468.22
2022-11-15T08:50:00.568Z,100461.88
2022-11-15T08:50:57.659Z,100482.16
2022-11-15T08:51:48.633Z,100462.66
2022-11-15T08:52:42.246Z,100460.44
2022-11-15T08:53:32.942Z,100460.44
2022-11-15T08:54:26.904Z,100467.84
2022-11-15T08:55:18.061Z,100455.75
2022-11-15T08:56:12.748Z,100478.94
2022-11-15T08:57:06.637Z,100462.13
2022-11-15T08:58:01.210Z,100485.06
2022-11-15T08:58:54.799Z,100468.06
2022-11-15T08:59:45.504Z,100472.38
2022-11-15T09:00:38.937Z,100485.69
2022-11-15T09:01:33.730Z,100482.41
2022-11-15T09:02:27.025Z,100467.25
2022-11-15T09:03:21.224Z,100469.09
2022-11-15T09:04:14.620Z,100451.88
2022-11-15T09:05:06.478Z,100457.22
2022-11-15T09:06:03.934Z,100460.09
2022-11-15T09:06:55.129Z,100457.88
2022-11-15T09:07:48.643Z,100462.16
2022-11-15T09:08:47.339Z,100460.09
2022-11-15T09:09:45.408Z,100438.75
2022-11-15T09:10:37.639Z,100456.41
2022-11-15T09:11:31.160Z,100452.72
2022-11-15T09:12:22.821Z,100450.88
2022-11-15T09:13:15.929Z,100441.22
2022-11-15T09:14:06.585Z,100441.84
2022-11-15T09:15:00.616Z,100433.84
2022-11-15T09:15:53.545Z,100438.13
2022-11-15T09:16:46.949Z,100439.75
2022-11-15T09:17:40.895Z,100434.22
2022-11-15T09:18:36.514Z,100431.31
2022-11-15T09:19:31.909Z,100434.44
2022-11-15T09:20:23.085Z,100437.91
2022-11-15T09:21:16.761Z,100447.56
2022-11-15T09:22:07.895Z,100439.31
2022-11-15T09:23:03.745Z,100435.03
2022-11-15T09:23:56.878Z,100435.69
2022-11-15T09:24:47.873Z,100423.97
2022-11-15T09:25:41.549Z,100429.75
2022-11-15T09:26:34.174Z,100428.72
2022-11-15T09:27:31.324Z,100424.41
2022-11-15T09:28:22.189Z,100417.22
2022-11-15T09:29:15.361Z,100411.69
2022-11-15T09:30:07.524Z,100406.94
2022-11-15T09:31:02.696Z,100417.41
2022-11-15T09:31:56.477Z,100411.03
2022-11-15T09:32:47.241Z,100407.75
2022-11-15T09:33:43.566Z,100414.53
2022-11-15T09:34:34.345Z,100397.72
2022-11-15T09:35:30.684Z,100404.66
2022-11-15T09:36:22.232Z,100398.09
2022-11-15T09:37:16.010Z,100398.25
2022-11-15T09:38:06.998Z,100397.66
2022-11-15T09:39:01.521Z,100389.66
2022-11-15T09:39:52.487Z,100384.94
2022-11-15T09:40:46.312Z,100389.38
2022-11-15T09:41:52.996Z,100375.00
2022-11-15T09:43:15.983Z,100371.91
2022-11-15T09:44:27.209Z,100368.00
2022-11-15T09:45:24.470Z,100372.28
2022-11-15T09:46:32.498Z,100377.38
2022-11-15T09:47:53.888Z,100362.56
2022-11-15T09:49:00.000Z,100358.88
2022-11-15T09:49:38.007Z,100360.31
2022-11-15T09:50:37.911Z,100366.22
2022-11-15T09:51:15.552Z,100359.25
2022-11-15T09:51:52.860Z,100357.19
2022-11-15T09:52:25.987Z,100357.81
2022-11-15T09:53:00.912Z,100356.75
2022-11-15T09:54:23.650Z,100359.41
2022-11-15T09:55:39.986Z,100349.78
2022-11-15T09:56:20.655Z,100369.72
2022-11-15T09:56:54.153Z,100376.06
2022-11-15T09:57:36.324Z,100354.72
2022-11-15T09:58:32.292Z,100357.41
2022-11-15T09:59:24.378Z,100350.66
2022-11-15T10:00:43.986Z,100348.22
2022-11-15T10:01:03.911Z,100333.47
2022-11-15T10:01:46.155Z,100350.28
2022-11-15T10:02:37.039Z,100343.91
2022-11-15T10:03:13.756Z,100333.47
2022-11-15T10:03:48.648Z,100329.53
2022-11-15T10:04:25.076Z,100326.44
2022-11-15T10:05:03.001Z,100338.72
2022-11-15T10:05:40.198Z,100335.47
2022-11-15T10:06:28.281Z,100344.06
2022-11-15T10:07:11.942Z,100340.97
2022-11-15T10:07:53.906Z,100342.22
2022-11-15T10:08:48.033Z,100333.38
2022-11-15T10:09:27.349Z,100326.44
2022-11-15T10:10:09.436Z,100321.69
2022-11-15T10:10:47.949Z,100327.84
2022-11-15T10:11:37.186Z,100322.31
2022-11-15T10:12:16.281Z,100327.63
2022-11-15T10:12:51.553Z,100329.03
2022-11-15T10:13:26.532Z,100332.06
2022-11-15T10:14:04.865Z,100331.84
2022-11-15T10:14:37.834Z,100312.34
2022-11-15T10:15:20.426Z,100320.50
2022-11-15T10:15:58.462Z,100320.31
2022-11-15T10:17:00.259Z,100320.06
2022-11-15T10:17:59.820Z,100312.06
2022-11-15T10:18:37.220Z,100319.25
2022-11-15T10:19:25.190Z,100315.53
2022-11-15T10:20:10.027Z,100314.97
2022-11-15T10:20:51.476Z,100312.31
2022-11-15T10:21:30.542Z,100297.31
2022-11-15T10:22:21.898Z,100302.19
2022-11-15T10:22:56.964Z,100312.66
2022-11-15T10:23:33.551Z,100302.34
2022-11-15T10:24:21.646Z,100313.63
2022-11-15T10:25:15.592Z,100302.13
2022-11-15T10:25:47.883Z,100299.47
2022-11-15T10:26:22.634Z,100297.38
2022-11-15T10:26:55.864Z,100289.97
2022-11-15T10:27:27.987Z,100298.19
2022-11-15T10:28:05.012Z,100292.03
2022-11-15T10:28:37.320Z,100294.13
2022-11-15T10:29:12.069Z,100283.88
2022-11-15T10:29:46.322Z,100291.22
2022-11-15T10:30:19.987Z,100292.84
2022-11-15T10:30:57.047Z,100290.78
2022-11-15T10:31:42.525Z,100288.13
2022-11-15T10:32:19.866Z,100290.34
2022-11-15T10:32:51.986Z,100285.34
2022-11-15T10:33:34.900Z,100284.91
2022-11-15T10:34:14.911Z,100277.50
2022-11-15T10:34:48.396Z,100276.47
2022-11-15T10:35:28.458Z,100277.03
2022-11-15T10:36:19.868Z,100271.69
2022-11-15T10:36:59.782Z,100271.28
2022-11-15T10:37:33.116Z,100266.75
2022-11-15T10:38:10.123Z,100268.13
2022-11-15T10:38:58.463Z,100267.53
2022-11-15T10:39:30.720Z,100263.84
2022-11-15T10:40:10.863Z,100265.47
2022-11-15T10:40:44.806Z,100263.84
2022-11-15T10:41:30.608Z,100264.66
2022-11-15T10:42:20.274Z,100257.69
2022-11-15T10:43:16.365Z,100262.44
2022-11-15T10:44:04.510Z,100266.34
2022-11-15T10:44:47.249Z,100256.50
2022-11-15T10:45:31.023Z,100257.53
2022-11-15T10:46:51.451Z,100248.75
2022-11-15T10:47:25.345Z,100245.25
2022-11-15T10:48:27.585Z,100253.47
2022-11-15T10:49:14.701Z,100246.28
2022-11-15T10:49:58.585Z,100241.75
2022-11-15T10:50:33.911Z,100245.81
2022-11-15T10:51:27.302Z,100248.75
2022-11-15T10:52:01.610Z,100228.41
2022-11-15T10:52:39.952Z,100241.53
2022-11-15T10:53:18.826Z,100237.00
2022-11-15T10:53:56.211Z,100232.47
2022-11-15T10:54:31.174Z,100232.25
2022-11-15T10:55:22.871Z,100229.38
2022-11-15T10:55:58.161Z,100234.94
2022-11-15T10:56:32.974Z,100234.72
2022-11-15T10:57:08.808Z,100226.47
2022-11-15T10:57:43.825Z,100229.13
2022-11-15T10:58:25.248Z,100229.94
2022-11-15T10:59:01.598Z,100226.09
2022-11-15T10:59:39.139Z,100222.63
2022-11-15T11:00:32.835Z,100217.75
2022-11-15T11:01:14.777Z,100223.09
2022-11-15T11:01:50.711Z,100219.38
2022-11-15T11:02:31.151Z,100222.06
2022-11-15T11:03:08.185Z,100217.59
2022-11-15T11:03:42.516Z,100225.75
2022-11-15T11:04:17.413Z,100214.13
2022-11-15T11:04:53.215Z,100214.94
2022-11-15T11:05:41.223Z,100213.91
2022-11-15T11:06:17.299Z,100205.28
2022-11-15T11:06:56.412Z,100209.00
2022-11-15T11:07:30.864Z,100210.63
2022-11-15T11:08:06.168Z,100211.91
2022-11-15T11:08:41.202Z,100205.75
2022-11-15T11:09:24.893Z,100205.75
2022-11-15T11:10:22.799Z,100202.88
2022-11-15T11:11:02.708Z,100200.22
2022-11-15T11:11:49.374Z,100198.31
2022-11-15T11:12:29.657Z,100197.28
2022-11-15T11:13:17.489Z,100188.47
2022-11-15T11:13:52.437Z,100188.25
2022-11-15T11:14:31.991Z,100189.06
2022-11-15T11:15:14.796Z,100190.69
2022-11-15T11:15:56.040Z,100183.47
2022-11-15T11:16:42.908Z,100181.88
2022-11-15T11:17:26.788Z,100183.47
2022-11-15T11:18:10.304Z,100175.47
2022-11-15T11:18:52.930Z,100180.81
2022-11-15T11:19:47.924Z,100176.19
2022-11-15T11:20:28.489Z,100177.34
2022-11-15T11:21:09.485Z,100176.06
2022-11-15T11:21:53.350Z,100160.06
2022-11-15T11:22:32.820Z,100142.53
2022-11-15T11:23:23.600Z,100163.69
2022-11-15T11:24:00.897Z,100171.69
2022-11-15T11:24:39.982Z,100162.41
2022-11-15T11:25:27.640Z,100157.88
2022-11-15T11:26:19.612Z,100158.69
2022-11-15T11:27:04.151Z,100151.97
2022-11-15T11:27:51.327Z,100160.19
2022-11-15T11:28:38.235Z,100148.91
2022-11-15T11:29:26.798Z,100153.44
2022-11-15T11:30:09.501Z,100152.88
2022-11-15T11:30:55.488Z,100153.91
2022-11-15T11:31:35.560Z,100153.09
2022-11-15T11:32:31.121Z,100148.34
2022-11-15T11:33:17.460Z,100153.69
2022-11-15T11:34:05.179Z,100148.34
2022-11-15T11:34:51.066Z,100144.03
2022-11-15T11:35:32.645Z,100140.34
2022-11-15T11:36:20.226Z,100137.41
2022-11-15T11:37:03.212Z,100133.72
2022-11-15T11:37:46.006Z,100141.72
2022-11-15T11:38:36.254Z,100137.41
2022-11-15T11:39:22.395Z,100133.38
2022-11-15T11:40:11.228Z,100133.38
2022-11-15T11:41:00.721Z,100137.06
2022-11-15T11:41:53.309Z,100130.34
2022-11-15T11:42:37.463Z,100137.31
2022-11-15T11:43:21.017Z,100128.50
2022-11-15T11:44:11.174Z,100131.72
2022-11-15T11:44:57.756Z,100140.34
2022-11-15T11:45:51.635Z,100133.16
2022-11-15T11:46:40.460Z,100128.38
2022-11-15T11:47:19.732Z,100135.56
2022-11-15T11:48:01.873Z,100138.84
2022-11-15T11:48:43.072Z,100134.53
2022-11-15T11:49:31.292Z,100128.16
2022-11-15T11:50:16.619Z,100134.88
2022-11-15T11:50:52.974Z,100126.66
2022-11-15T11:51:31.976Z,100120.84
2022-11-15T11:52:13.521Z,100116.97
2022-11-15T11:53:02.359Z,100125.53
2022-11-15T11:53:44.917Z,100114.84
2022-11-15T11:54:24.114Z,100115.44
2022-11-15T11:55:05.866Z,100118.69
2022-11-15T11:55:42.466Z,100119.50
2022-11-15T11:56:27.257Z,100112.09
2022-11-15T11:57:02.126Z,100111.06
2022-11-15T11:57:44.516Z,100120.66
2022-11-15T11:58:23.073Z,100110.81
2022-11-15T11:58:59.626Z,100105.72
2022-11-15T11:59:41.311Z,100112.31
2022-11-15T12:00:20.889Z,100104.56
2022-11-15T12:00:59.901Z,100107.66
2022-11-15T12:01:37.560Z,100109.50
2022-11-15T12:02:19.535Z,100103.34
2022-11-15T12:03:06.793Z,100105.25
2022-11-15T12:03:47.588Z,100099.91
2022-11-15T12:04:25.990Z,100101.75
2022-11-15T12:05:09.030Z,100094.56
2022-11-15T12:05:44.397Z,100099.31
2022-11-15T12:06:28.480Z,100101.97
2022-11-15T12:07:07.292Z,100100.56
2022-11-15T12:07:44.274Z,100094.16
2022-11-15T12:08:27.102Z,100099.09
2022-11-15T12:09:07.325Z,100104.44
2022-11-15T12:09:44.778Z,100099.91
2022-11-15T12:10:26.396Z,100093.75
2022-11-15T12:11:08.051Z,100098.84
2022-11-15T12:11:56.113Z,100093.97
2022-11-15T12:12:36.022Z,100086.78
2022-11-15T12:13:15.575Z,100087.59
2022-11-15T12:13:52.021Z,100088.41
2022-11-15T12:14:35.286Z,100088.97
2022-11-15T12:15:16.486Z,100086.31
2022-11-15T12:15:57.327Z,100080.97
2022-11-15T12:16:30.763Z,100082.59
2022-11-15T12:17:02.983Z,100085.06
2022-11-15T12:17:37.735Z,100079.72
2022-11-15T12:18:14.034Z,100070.88
2022-11-15T12:18:52.792Z,100084.22
2022-11-15T12:19:25.041Z,100075.41
2022-11-15T12:19:58.882Z,100073.56
2022-11-15T12:20:38.211Z,100079.47
2022-11-15T12:21:23.967Z,100077.38
2022-11-15T12:22:10.779Z,100071.44
2022-11-15T12:22:47.599Z,100067.97
2022-11-15T12:23:27.735Z,100074.13
2022-11-15T12:24:05.447Z,100077.84
2022-11-15T12:24:45.464Z,100068.22
2022-11-15T12:25:21.851Z,100066.34
2022-11-15T12:26:01.146Z,100059.94
2022-11-15T12:26:38.451Z,100066.91
2022-11-15T12:27:26.548Z,100062.41
2022-11-15T12:28:04.477Z,100054.97
2022-11-15T12:29:05.796Z,100054.38
2022-11-15T12:29:40.933Z,100053.81
2022-11-15T12:30:19.207Z,100058.91
2022-11-15T12:30:55.826Z,100045.56
2022-11-15T12:31:39.434Z,100042.66
2022-11-15T12:32:24.655Z,100049.28
2022-11-15T12:33:05.654Z,100046.38
2022-11-15T12:33:40.774Z,100054.97
2022-11-15T12:34:46.579Z,100058.22
2022-11-15T12:35:26.699Z,100051.25
2022-11-15T12:36:03.917Z,100058.81
2022-11-15T12:36:39.585Z,100052.41
2022-11-15T12:37:53.218Z,100045.22
2022-11-15T12:39:01.375Z,100054.50
2022-11-15T12:40:12.774Z,100048.00
2022-11-15T12:41:18.393Z,100042.66
2022-11-15T12:42:39.252Z,100048.00
2022-11-15T12:43:40.978Z,100032.81
2022-11-15T12:44:14.890Z,100033.63
2022-11-15T12:45:02.923Z,100037.09
2022-11-15T12:45:37.815Z,100046.72
2022-11-15T12:46:22.638Z,100035.59
2022-11-15T12:47:25.313Z,100035.59
2022-11-15T12:48:33.873Z,100037.44
2022-11-15T12:49:14.315Z,100031.03